sensor_id;sensor_type;location;lat;lon;timestamp;temperature;humidity
39983;DHT22;25670;44.782;10.356;2022-10-31T00:00:54;14.00;99.90
39983;DHT22;25670;44.782;10.356;2022-10-31T00:05:49;13.70;99.90
39983;DHT22;25670;44.782;10.356;2022-10-31T00:08:16;13.30;99.90
39983;DHT22;25670;44.782;10.356;2022-10-31T00:10:44;13.70;99.90
39983;DHT22;25670;44.782;10.356;2022-10-31T00:15:38;13.60;99.90
39983;DHT22;25670;44.782;10.356;2022-10-31T00:18:06;13.60;99.90
39983;DHT22;25670;44.782;10.356;2022-10-31T00:20:33;13.60;99.90
39983;DHT22;25670;44.782;10.356;2022-10-31T00:23:01;14.30;99.90
39983;DHT22;25670;44.782;10.356;2022-10-31T00:25:28;13.60;99.90
39983;DHT22;25670;44.782;10.356;2022-10-31T00:27:55;13.70;99.90
39983;DHT22;25670;44.782;10.356;2022-10-31T00:30:21;13.70;99.90
39983;DHT22;25670;44.782;10.356;2022-10-31T00:32:48;13.60;99.90
39983;DHT22;25670;44.782;10.356;2022-10-31T00:37:42;13.50;99.90
39983;DHT22;25670;44.782;10.356;2022-10-31T00:40:09;13.50;99.90
39983;DHT22;25670;44.782;10.356;2022-10-31T00:45:02;13.40;99.90
39983;DHT22;25670;44.782;10.356;2022-10-31T00:47:28;13.50;99.90
39983;DHT22;25670;44.782;10.356;2022-10-31T00:52:21;13.40;99.90
39983;DHT22;25670;44.782;10.356;2022-10-31T00:54:47;13.40;99.90
39983;DHT22;25670;44.782;10.356;2022-10-31T00:57:14;13.40;99.90
39983;DHT22;25670;44.782;10.356;2022-10-31T01:16:49;13.20;99.90
39983;DHT22;25670;44.782;10.356;2022-10-31T01:29:06;13.10;99.90
39983;DHT22;25670;44.782;10.356;2022-10-31T01:31:37;13.00;99.90
39983;DHT22;25670;44.782;10.356;2022-10-31T01:34:04;13.00;99.90
39983;DHT22;25670;44.782;10.356;2022-10-31T01:39:01;13.20;99.90
39983;DHT22;25670;44.782;10.356;2022-10-31T01:41:30;13.30;99.90
39983;DHT22;25670;44.782;10.356;2022-10-31T01:52:24;13.00;99.90
39983;DHT22;25670;44.782;10.356;2022-10-31T01:55:03;13.00;99.90
39983;DHT22;25670;44.782;10.356;2022-10-31T01:57:32;13.00;99.90
39983;DHT22;25670;44.782;10.356;2022-10-31T02:00:03;13.00;99.90
39983;DHT22;25670;44.782;10.356;2022-10-31T02:02:39;13.00;99.90
39983;DHT22;25670;44.782;10.356;2022-10-31T02:05:09;13.00;99.90
39983;DHT22;25670;44.782;10.356;2022-10-31T02:07:44;12.90;99.90
39983;DHT22;25670;44.782;10.356;2022-10-31T02:10:11;12.90;99.90
39983;DHT22;25670;44.782;10.356;2022-10-31T02:12:38;12.90;99.90
39983;DHT22;25670;44.782;10.356;2022-10-31T02:15:05;12.90;99.90
39983;DHT22;25670;44.782;10.356;2022-10-31T02:17:33;12.80;99.90
39983;DHT22;25670;44.782;10.356;2022-10-31T02:20:25;12.80;99.90
39983;DHT22;25670;44.782;10.356;2022-10-31T02:33:40;12.70;99.90
39983;DHT22;25670;44.782;10.356;2022-10-31T02:36:18;12.80;99.90
39983;DHT22;25670;44.782;10.356;2022-10-31T02:39:16;11.50;99.90
39983;DHT22;25670;44.782;10.356;2022-10-31T02:41:57;12.70;99.90
39983;DHT22;25670;44.782;10.356;2022-10-31T02:44:51;12.60;99.90
39983;DHT22;25670;44.782;10.356;2022-10-31T02:47:25;12.80;99.90
39983;DHT22;25670;44.782;10.356;2022-10-31T02:50:02;12.70;99.90
39983;DHT22;25670;44.782;10.356;2022-10-31T02:52:33;12.60;99.90
39983;DHT22;25670;44.782;10.356;2022-10-31T02:55:41;12.60;99.90
39983;DHT22;25670;44.782;10.356;2022-10-31T02:58:14;12.50;99.90
39983;DHT22;25670;44.782;10.356;2022-10-31T03:03:21;12.50;99.90
39983;DHT22;25670;44.782;10.356;2022-10-31T03:08:30;12.40;99.90
39983;DHT22;25670;44.782;10.356;2022-10-31T03:11:05;12.20;99.90
39983;DHT22;25670;44.782;10.356;2022-10-31T03:13:41;12.40;99.90
39983;DHT22;25670;44.782;10.356;2022-10-31T03:16:16;12.30;99.90
39983;DHT22;25670;44.782;10.356;2022-10-31T03:19:02;11.80;99.90
39983;DHT22;25670;44.782;10.356;2022-10-31T03:24:08;12.10;99.90
39983;DHT22;25670;44.782;10.356;2022-10-31T03:26:36;12.20;99.90
39983;DHT22;25670;44.782;10.356;2022-10-31T03:29:06;12.40;99.90
39983;DHT22;25670;44.782;10.356;2022-10-31T03:31:50;12.40;99.90
39983;DHT22;25670;44.782;10.356;2022-10-31T03:34:19;12.20;99.90
39983;DHT22;25670;44.782;10.356;2022-10-31T03:36:50;12.40;99.90
39983;DHT22;25670;44.782;10.356;2022-10-31T03:39:19;12.20;99.90
39983;DHT22;25670;44.782;10.356;2022-10-31T03:42:02;12.30;99.90
39983;DHT22;25670;44.782;10.356;2022-10-31T03:44:33;12.50;99.90
39983;DHT22;25670;44.782;10.356;2022-10-31T03:47:03;13.30;99.90
39983;DHT22;25670;44.782;10.356;2022-10-31T03:49:30;12.10;99.90
39983;DHT22;25670;44.782;10.356;2022-10-31T03:52:22;12.40;99.90
39983;DHT22;25670;44.782;10.356;2022-10-31T03:54:59;12.50;99.90
39983;DHT22;25670;44.782;10.356;2022-10-31T04:00:08;12.60;99.90
39983;DHT22;25670;44.782;10.356;2022-10-31T04:02:59;12.90;99.90
39983;DHT22;25670;44.782;10.356;2022-10-31T04:05:29;12.50;99.90
39983;DHT22;25670;44.782;10.356;2022-10-31T04:08:01;12.50;99.90
39983;DHT22;25670;44.782;10.356;2022-10-31T04:10:31;12.50;99.90
39983;DHT22;25670;44.782;10.356;2022-10-31T04:13:03;12.40;99.90
39983;DHT22;25670;44.782;10.356;2022-10-31T04:15:39;12.30;99.90
39983;DHT22;25670;44.782;10.356;2022-10-31T04:18:07;12.70;99.90
39983;DHT22;25670;44.782;10.356;2022-10-31T04:20:39;12.20;99.90
39983;DHT22;25670;44.782;10.356;2022-10-31T04:23:20;12.10;99.90
39983;DHT22;25670;44.782;10.356;2022-10-31T04:25:48;12.10;99.90
39983;DHT22;25670;44.782;10.356;2022-10-31T04:28:16;12.20;99.90
39983;DHT22;25670;44.782;10.356;2022-10-31T04:30:43;12.20;99.90
39983;DHT22;25670;44.782;10.356;2022-10-31T04:33:09;11.90;99.90
39983;DHT22;25670;44.782;10.356;2022-10-31T04:38:03;12.20;99.90
39983;DHT22;25670;44.782;10.356;2022-10-31T04:40:30;12.20;99.90
39983;DHT22;25670;44.782;10.356;2022-10-31T04:43:31;12.00;99.90
39983;DHT22;25670;44.782;10.356;2022-10-31T04:45:59;12.10;99.90
39983;DHT22;25670;44.782;10.356;2022-10-31T04:48:26;12.10;99.90
39983;DHT22;25670;44.782;10.356;2022-10-31T04:53:20;11.60;99.90
39983;DHT22;25670;44.782;10.356;2022-10-31T04:56:12;11.60;99.90
39983;DHT22;25670;44.782;10.356;2022-10-31T05:01:31;11.10;99.90
39983;DHT22;25670;44.782;10.356;2022-10-31T05:06:25;11.00;99.90
39983;DHT22;25670;44.782;10.356;2022-10-31T05:08:52;10.90;99.90
39983;DHT22;25670;44.782;10.356;2022-10-31T05:11:19;11.30;99.90
39983;DHT22;25670;44.782;10.356;2022-10-31T05:13:45;11.40;99.90
39983;DHT22;25670;44.782;10.356;2022-10-31T05:18:56;11.70;99.90
39983;DHT22;25670;44.782;10.356;2022-10-31T05:21:46;11.70;99.90
39983;DHT22;25670;44.782;10.356;2022-10-31T05:39:18;11.70;99.90
39983;DHT22;25670;44.782;10.356;2022-10-31T05:41:53;11.50;99.90
39983;DHT22;25670;44.782;10.356;2022-10-31T05:44:22;11.60;99.90
39983;DHT22;25670;44.782;10.356;2022-10-31T05:55:13;11.00;99.90
39983;DHT22;25670;44.782;10.356;2022-10-31T05:57:48;11.00;99.90
39983;DHT22;25670;44.782;10.356;2022-10-31T06:00:14;11.00;99.90
39983;DHT22;25670;44.782;10.356;2022-10-31T06:07:52;10.90;99.90
39983;DHT22;25670;44.782;10.356;2022-10-31T06:10:18;10.80;99.90
39983;DHT22;25670;44.782;10.356;2022-10-31T06:18:01;10.60;99.90
39983;DHT22;25670;44.782;10.356;2022-10-31T06:23:03;10.90;99.90
39983;DHT22;25670;44.782;10.356;2022-10-31T06:25:32;10.80;99.90
39983;DHT22;25670;44.782;10.356;2022-10-31T06:30:34;11.50;99.90
39983;DHT22;25670;44.782;10.356;2022-10-31T06:33:05;11.50;99.90
39983;DHT22;25670;44.782;10.356;2022-10-31T06:35:34;11.70;99.90
39983;DHT22;25670;44.782;10.356;2022-10-31T06:40:37;11.90;99.90
39983;DHT22;25670;44.782;10.356;2022-10-31T06:43:15;11.80;99.90
39983;DHT22;25670;44.782;10.356;2022-10-31T06:45:41;12.00;99.90
39983;DHT22;25670;44.782;10.356;2022-10-31T06:48:32;12.10;99.90
39983;DHT22;25670;44.782;10.356;2022-10-31T06:53:42;12.20;99.90
39983;DHT22;25670;44.782;10.356;2022-10-31T06:58:42;11.90;99.90
39983;DHT22;25670;44.782;10.356;2022-10-31T07:01:11;12.30;99.90
39983;DHT22;25670;44.782;10.356;2022-10-31T07:03:37;12.30;99.90
39983;DHT22;25670;44.782;10.356;2022-10-31T07:08:32;13.00;99.90
39983;DHT22;25670;44.782;10.356;2022-10-31T07:10:58;12.70;99.90
39983;DHT22;25670;44.782;10.356;2022-10-31T07:13:26;12.80;99.90
39983;DHT22;25670;44.782;10.356;2022-10-31T07:16:07;12.90;99.90
39983;DHT22;25670;44.782;10.356;2022-10-31T07:18:35;13.00;99.90
39983;DHT22;25670;44.782;10.356;2022-10-31T07:21:02;16.10;99.90
39983;DHT22;25670;44.782;10.356;2022-10-31T07:26:18;13.40;99.90
39983;DHT22;25670;44.782;10.356;2022-10-31T07:33:41;13.90;99.90
39983;DHT22;25670;44.782;10.356;2022-10-31T07:36:28;14.00;99.90
39983;DHT22;25670;44.782;10.356;2022-10-31T07:38:59;14.10;99.90
39983;DHT22;25670;44.782;10.356;2022-10-31T07:41:26;14.30;99.90
39983;DHT22;25670;44.782;10.356;2022-10-31T07:43:53;14.40;99.90
39983;DHT22;25670;44.782;10.356;2022-10-31T07:46:42;14.60;99.90
39983;DHT22;25670;44.782;10.356;2022-10-31T07:49:26;14.80;99.90
39983;DHT22;25670;44.782;10.356;2022-10-31T07:52:32;15.00;99.90
39983;DHT22;25670;44.782;10.356;2022-10-31T07:55:32;15.10;99.90
39983;DHT22;25670;44.782;10.356;2022-10-31T07:58:09;15.20;99.90
39983;DHT22;25670;44.782;10.356;2022-10-31T08:01:19;15.30;99.90
39983;DHT22;25670;44.782;10.356;2022-10-31T08:03:59;15.80;99.90
39983;DHT22;25670;44.782;10.356;2022-10-31T08:06:50;15.70;99.90
39983;DHT22;25670;44.782;10.356;2022-10-31T08:09:27;14.10;99.90
39983;DHT22;25670;44.782;10.356;2022-10-31T08:11:57;15.90;99.90
39983;DHT22;25670;44.782;10.356;2022-10-31T08:14:23;16.10;99.90
39983;DHT22;25670;44.782;10.356;2022-10-31T08:16:52;16.30;99.90
39983;DHT22;25670;44.782;10.356;2022-10-31T08:19:20;16.40;99.90
39983;DHT22;25670;44.782;10.356;2022-10-31T08:21:46;16.50;99.90
39983;DHT22;25670;44.782;10.356;2022-10-31T08:24:12;16.70;99.90
39983;DHT22;25670;44.782;10.356;2022-10-31T08:26:40;16.80;99.90
39983;DHT22;25670;44.782;10.356;2022-10-31T08:29:09;16.90;99.90
39983;DHT22;25670;44.782;10.356;2022-10-31T08:31:41;16.90;99.90
39983;DHT22;25670;44.782;10.356;2022-10-31T08:34:40;16.90;99.90
39983;DHT22;25670;44.782;10.356;2022-10-31T08:37:24;17.10;99.90
39983;DHT22;25670;44.782;10.356;2022-10-31T08:39:54;17.10;99.90
39983;DHT22;25670;44.782;10.356;2022-10-31T08:42:21;17.30;99.90
39983;DHT22;25670;44.782;10.356;2022-10-31T08:44:48;18.40;99.90
39983;DHT22;25670;44.782;10.356;2022-10-31T08:47:14;17.50;99.90
39983;DHT22;25670;44.782;10.356;2022-10-31T08:49:41;17.70;99.90
39983;DHT22;25670;44.782;10.356;2022-10-31T08:52:07;17.80;99.90
39983;DHT22;25670;44.782;10.356;2022-10-31T08:54:38;17.90;99.90
39983;DHT22;25670;44.782;10.356;2022-10-31T08:57:36;18.00;99.90
39983;DHT22;25670;44.782;10.356;2022-10-31T09:00:03;18.10;99.90
39983;DHT22;25670;44.782;10.356;2022-10-31T09:02:57;18.20;99.90
39983;DHT22;25670;44.782;10.356;2022-10-31T09:05:30;18.20;99.90
39983;DHT22;25670;44.782;10.356;2022-10-31T09:07:58;18.30;99.90
39983;DHT22;25670;44.782;10.356;2022-10-31T09:10:26;18.40;99.90
39983;DHT22;25670;44.782;10.356;2022-10-31T09:13:00;18.40;99.90
39983;DHT22;25670;44.782;10.356;2022-10-31T09:15:48;18.40;99.90
39983;DHT22;25670;44.782;10.356;2022-10-31T09:18:23;18.50;99.90
39983;DHT22;25670;44.782;10.356;2022-10-31T09:20:59;18.60;99.90
39983;DHT22;25670;44.782;10.356;2022-10-31T09:23:28;18.80;99.90
39983;DHT22;25670;44.782;10.356;2022-10-31T09:25:55;18.80;99.90
39983;DHT22;25670;44.782;10.356;2022-10-31T09:28:42;18.80;99.90
39983;DHT22;25670;44.782;10.356;2022-10-31T09:31:14;18.90;99.90
39983;DHT22;25670;44.782;10.356;2022-10-31T09:33:46;19.00;99.90
39983;DHT22;25670;44.782;10.356;2022-10-31T09:36:37;19.00;99.90
39983;DHT22;25670;44.782;10.356;2022-10-31T09:39:05;19.10;99.90
39983;DHT22;25670;44.782;10.356;2022-10-31T09:50:27;19.60;99.90
39983;DHT22;25670;44.782;10.356;2022-10-31T09:53:08;19.80;99.90
39983;DHT22;25670;44.782;10.356;2022-10-31T09:55:42;19.80;99.90
39983;DHT22;25670;44.782;10.356;2022-10-31T09:58:20;19.80;99.90
39983;DHT22;25670;44.782;10.356;2022-10-31T10:00:54;19.90;99.90
39983;DHT22;25670;44.782;10.356;2022-10-31T10:06:18;20.00;99.90
39983;DHT22;25670;44.782;10.356;2022-10-31T10:09:14;20.00;99.90
39983;DHT22;25670;44.782;10.356;2022-10-31T10:12:25;20.10;99.90
39983;DHT22;25670;44.782;10.356;2022-10-31T10:24:25;20.50;99.90
39983;DHT22;25670;44.782;10.356;2022-10-31T10:27:12;20.70;99.90
39983;DHT22;25670;44.782;10.356;2022-10-31T10:29:50;20.80;99.90
39983;DHT22;25670;44.782;10.356;2022-10-31T10:32:27;22.60;99.90
39983;DHT22;25670;44.782;10.356;2022-10-31T10:37:46;21.20;99.90
39983;DHT22;25670;44.782;10.356;2022-10-31T10:40:21;21.20;99.90
39983;DHT22;25670;44.782;10.356;2022-10-31T10:52:01;21.10;99.90
39983;DHT22;25670;44.782;10.356;2022-10-31T11:00:00;21.70;99.90
39983;DHT22;25670;44.782;10.356;2022-10-31T11:02:31;21.70;99.90
39983;DHT22;25670;44.782;10.356;2022-10-31T11:05:00;21.80;99.90
39983;DHT22;25670;44.782;10.356;2022-10-31T11:07:40;21.80;99.90
39983;DHT22;25670;44.782;10.356;2022-10-31T11:10:12;21.90;99.90
39983;DHT22;25670;44.782;10.356;2022-10-31T11:12:45;22.00;99.90
39983;DHT22;25670;44.782;10.356;2022-10-31T11:15:24;22.10;99.90
39983;DHT22;25670;44.782;10.356;2022-10-31T11:17:54;22.10;99.90
39983;DHT22;25670;44.782;10.356;2022-10-31T11:20:35;22.00;99.90
39983;DHT22;25670;44.782;10.356;2022-10-31T11:23:22;21.90;99.90
39983;DHT22;25670;44.782;10.356;2022-10-31T11:26:01;22.00;99.90
39983;DHT22;25670;44.782;10.356;2022-10-31T11:28:29;22.10;99.90
39983;DHT22;25670;44.782;10.356;2022-10-31T11:31:01;22.30;99.90
39983;DHT22;25670;44.782;10.356;2022-10-31T11:34:36;22.40;99.90
39983;DHT22;25670;44.782;10.356;2022-10-31T11:37:30;23.10;99.90
39983;DHT22;25670;44.782;10.356;2022-10-31T11:40:00;22.80;99.90
39983;DHT22;25670;44.782;10.356;2022-10-31T11:42:30;22.90;99.90
39983;DHT22;25670;44.782;10.356;2022-10-31T11:45:13;23.00;99.90
39983;DHT22;25670;44.782;10.356;2022-10-31T11:47:45;23.10;99.90
39983;DHT22;25670;44.782;10.356;2022-10-31T11:50:21;23.00;99.90
39983;DHT22;25670;44.782;10.356;2022-10-31T11:52:49;23.00;99.90
39983;DHT22;25670;44.782;10.356;2022-10-31T11:55:39;23.10;99.90
39983;DHT22;25670;44.782;10.356;2022-10-31T11:58:18;23.30;99.90
39983;DHT22;25670;44.782;10.356;2022-10-31T12:00:49;23.60;99.90
39983;DHT22;25670;44.782;10.356;2022-10-31T12:06:22;22.80;99.90
39983;DHT22;25670;44.782;10.356;2022-10-31T12:08:49;24.10;99.90
39983;DHT22;25670;44.782;10.356;2022-10-31T12:14:39;24.90;99.90
39983;DHT22;25670;44.782;10.356;2022-10-31T12:30:41;25.50;99.90
39983;DHT22;25670;44.782;10.356;2022-10-31T12:38:43;27.20;99.90
39983;DHT22;25670;44.782;10.356;2022-10-31T12:41:24;27.80;99.90
39983;DHT22;25670;44.782;10.356;2022-10-31T12:53:05;30.20;99.90
39983;DHT22;25670;44.782;10.356;2022-10-31T12:58:38;30.40;99.90
39983;DHT22;25670;44.782;10.356;2022-10-31T13:04:12;31.00;99.10
39983;DHT22;25670;44.782;10.356;2022-10-31T13:06:47;31.20;97.90
39983;DHT22;25670;44.782;10.356;2022-10-31T13:09:20;30.90;97.30
39983;DHT22;25670;44.782;10.356;2022-10-31T13:11:53;30.90;97.90
39983;DHT22;25670;44.782;10.356;2022-10-31T13:14:25;30.50;97.90
39983;DHT22;25670;44.782;10.356;2022-10-31T13:16:54;30.40;98.00
39983;DHT22;25670;44.782;10.356;2022-10-31T13:19:39;30.70;97.70
39983;DHT22;25670;44.782;10.356;2022-10-31T13:22:31;30.80;97.80
39983;DHT22;25670;44.782;10.356;2022-10-31T13:30:16;32.00;96.70
39983;DHT22;25670;44.782;10.356;2022-10-31T13:35:52;32.90;94.90
39983;DHT22;25670;44.782;10.356;2022-10-31T13:38:36;33.10;94.10
39983;DHT22;25670;44.782;10.356;2022-10-31T13:48:59;33.70;92.90
39983;DHT22;25670;44.782;10.356;2022-10-31T13:51:33;33.60;92.70
39983;DHT22;25670;44.782;10.356;2022-10-31T13:54:06;33.40;91.90
39983;DHT22;25670;44.782;10.356;2022-10-31T13:56:49;33.00;92.70
39983;DHT22;25670;44.782;10.356;2022-10-31T13:59:23;32.70;92.90
39983;DHT22;25670;44.782;10.356;2022-10-31T14:01:59;32.60;93.20
39983;DHT22;25670;44.782;10.356;2022-10-31T14:05:05;32.50;92.60
39983;DHT22;25670;44.782;10.356;2022-10-31T14:07:24;32.90;92.80
39983;DHT22;25670;44.782;10.356;2022-10-31T14:15:25;32.20;92.60
39983;DHT22;25670;44.782;10.356;2022-10-31T14:22:50;32.40;92.90
39983;DHT22;25670;44.782;10.356;2022-10-31T14:25:33;32.00;92.40
39983;DHT22;25670;44.782;10.356;2022-10-31T14:28:02;31.30;93.00
39983;DHT22;25670;44.782;10.356;2022-10-31T14:30:30;31.20;93.30
39983;DHT22;25670;44.782;10.356;2022-10-31T14:33:19;31.50;93.30
39983;DHT22;25670;44.782;10.356;2022-10-31T14:36:09;32.20;92.70
39983;DHT22;25670;44.782;10.356;2022-10-31T14:44:38;32.00;92.50
39983;DHT22;25670;44.782;10.356;2022-10-31T14:52:13;29.00;94.20
39983;DHT22;25670;44.782;10.356;2022-10-31T14:54:48;27.90;95.50
39983;DHT22;25670;44.782;10.356;2022-10-31T14:57:29;27.00;96.80
39983;DHT22;25670;44.782;10.356;2022-10-31T15:00:03;26.10;97.90
39983;DHT22;25670;44.782;10.356;2022-10-31T15:02:42;25.50;99.00
39983;DHT22;25670;44.782;10.356;2022-10-31T15:05:11;25.20;99.90
39983;DHT22;25670;44.782;10.356;2022-10-31T15:07:51;25.20;99.90
39983;DHT22;25670;44.782;10.356;2022-10-31T15:10:37;25.80;99.90
39983;DHT22;25670;44.782;10.356;2022-10-31T15:13:29;26.80;99.90
39983;DHT22;25670;44.782;10.356;2022-10-31T15:15:56;27.60;99.60
39983;DHT22;25670;44.782;10.356;2022-10-31T15:18:26;28.60;98.50
39983;DHT22;25670;44.782;10.356;2022-10-31T15:20:54;29.40;97.30
39983;DHT22;25670;44.782;10.356;2022-10-31T15:23:44;29.50;97.00
39983;DHT22;25670;44.782;10.356;2022-10-31T15:26:40;29.70;96.80
39983;DHT22;25670;44.782;10.356;2022-10-31T15:29:18;28.90;96.30
39983;DHT22;25670;44.782;10.356;2022-10-31T15:31:52;29.80;96.40
39983;DHT22;25670;44.782;10.356;2022-10-31T15:37:13;29.70;96.20
39983;DHT22;25670;44.782;10.356;2022-10-31T15:39:43;29.20;96.60
39983;DHT22;25670;44.782;10.356;2022-10-31T15:47:29;28.20;97.50
39983;DHT22;25670;44.782;10.356;2022-10-31T15:49:58;27.50;98.30
39983;DHT22;25670;44.782;10.356;2022-10-31T15:54:58;25.90;99.90
39983;DHT22;25670;44.782;10.356;2022-10-31T15:57:26;25.00;99.90
39983;DHT22;25670;44.782;10.356;2022-10-31T15:59:52;24.10;99.90
39983;DHT22;25670;44.782;10.356;2022-10-31T16:02:24;23.50;99.90
39983;DHT22;25670;44.782;10.356;2022-10-31T16:04:55;23.00;99.90
39983;DHT22;25670;44.782;10.356;2022-10-31T16:07:23;22.50;99.90
39983;DHT22;25670;44.782;10.356;2022-10-31T16:12:21;21.60;99.90
39983;DHT22;25670;44.782;10.356;2022-10-31T16:14:52;21.10;99.90
39983;DHT22;25670;44.782;10.356;2022-10-31T16:17:21;20.80;99.90
39983;DHT22;25670;44.782;10.356;2022-10-31T16:19:55;20.40;99.90
39983;DHT22;25670;44.782;10.356;2022-10-31T16:22:37;20.10;99.90
39983;DHT22;25670;44.782;10.356;2022-10-31T16:25:14;19.70;99.90
39983;DHT22;25670;44.782;10.356;2022-10-31T16:27:48;19.40;99.90
39983;DHT22;25670;44.782;10.356;2022-10-31T16:30:44;19.20;99.90
39983;DHT22;25670;44.782;10.356;2022-10-31T16:33:34;18.90;99.90
39983;DHT22;25670;44.782;10.356;2022-10-31T16:38:54;18.50;99.90
39983;DHT22;25670;44.782;10.356;2022-10-31T16:41:21;18.40;99.90
39983;DHT22;25670;44.782;10.356;2022-10-31T16:43:47;18.30;99.90
39983;DHT22;25670;44.782;10.356;2022-10-31T16:46:25;18.20;99.90
39983;DHT22;25670;44.782;10.356;2022-10-31T16:48:52;18.10;99.90
39983;DHT22;25670;44.782;10.356;2022-10-31T16:51:19;17.90;99.90
39983;DHT22;25670;44.782;10.356;2022-10-31T16:53:46;17.80;99.90
39983;DHT22;25670;44.782;10.356;2022-10-31T16:56:37;17.70;99.90
39983;DHT22;25670;44.782;10.356;2022-10-31T16:59:05;17.60;99.90
39983;DHT22;25670;44.782;10.356;2022-10-31T17:01:32;17.50;99.90
39983;DHT22;25670;44.782;10.356;2022-10-31T17:04:00;17.40;99.90
39983;DHT22;25670;44.782;10.356;2022-10-31T17:06:27;17.30;99.90
39983;DHT22;25670;44.782;10.356;2022-10-31T17:08:54;17.20;99.90
39983;DHT22;25670;44.782;10.356;2022-10-31T17:11:23;17.10;99.90
39983;DHT22;25670;44.782;10.356;2022-10-31T17:13:50;17.00;99.90
39983;DHT22;25670;44.782;10.356;2022-10-31T17:16:17;16.90;99.90
39983;DHT22;25670;44.782;10.356;2022-10-31T17:18:47;16.90;99.90
39983;DHT22;25670;44.782;10.356;2022-10-31T17:21:24;16.80;99.90
39983;DHT22;25670;44.782;10.356;2022-10-31T17:23:51;16.70;99.90
39983;DHT22;25670;44.782;10.356;2022-10-31T17:26:18;16.70;99.90
39983;DHT22;25670;44.782;10.356;2022-10-31T17:28:44;16.50;99.90
39983;DHT22;25670;44.782;10.356;2022-10-31T17:31:28;16.50;99.90
39983;DHT22;25670;44.782;10.356;2022-10-31T17:33:57;16.40;99.90
39983;DHT22;25670;44.782;10.356;2022-10-31T17:36:25;16.30;99.90
39983;DHT22;25670;44.782;10.356;2022-10-31T17:38:51;16.20;99.90
39983;DHT22;25670;44.782;10.356;2022-10-31T17:41:18;16.20;99.90
39983;DHT22;25670;44.782;10.356;2022-10-31T17:43:44;16.10;99.90
39983;DHT22;25670;44.782;10.356;2022-10-31T17:46:11;16.10;99.90
39983;DHT22;25670;44.782;10.356;2022-10-31T17:51:05;16.00;99.90
39983;DHT22;25670;44.782;10.356;2022-10-31T17:53:33;16.00;99.90
39983;DHT22;25670;44.782;10.356;2022-10-31T17:56:07;15.90;99.90
39983;DHT22;25670;44.782;10.356;2022-10-31T17:58:35;16.20;99.90
39983;DHT22;25670;44.782;10.356;2022-10-31T18:01:07;16.30;99.90
39983;DHT22;25670;44.782;10.356;2022-10-31T18:03:37;16.40;99.90
39983;DHT22;25670;44.782;10.356;2022-10-31T18:06:04;16.40;99.90
39983;DHT22;25670;44.782;10.356;2022-10-31T18:08:32;16.60;99.90
39983;DHT22;25670;44.782;10.356;2022-10-31T18:11:04;16.50;99.90
39983;DHT22;25670;44.782;10.356;2022-10-31T18:13:31;18.30;99.90
39983;DHT22;25670;44.782;10.356;2022-10-31T18:15:57;16.30;99.90
39983;DHT22;25670;44.782;10.356;2022-10-31T18:18:23;16.10;99.90
39983;DHT22;25670;44.782;10.356;2022-10-31T18:20:50;15.90;99.90
39983;DHT22;25670;44.782;10.356;2022-10-31T18:23:16;15.90;99.90
39983;DHT22;25670;44.782;10.356;2022-10-31T18:25:42;15.80;99.90
39983;DHT22;25670;44.782;10.356;2022-10-31T18:28:09;15.60;99.90
39983;DHT22;25670;44.782;10.356;2022-10-31T18:30:39;15.50;99.90
39983;DHT22;25670;44.782;10.356;2022-10-31T18:33:06;15.60;99.90
39983;DHT22;25670;44.782;10.356;2022-10-31T18:35:37;15.70;99.90
39983;DHT22;25670;44.782;10.356;2022-10-31T18:38:04;15.70;99.90
39983;DHT22;25670;44.782;10.356;2022-10-31T18:40:33;15.60;99.90
39983;DHT22;25670;44.782;10.356;2022-10-31T18:43:01;15.60;99.90
39983;DHT22;25670;44.782;10.356;2022-10-31T18:45:29;15.70;99.90
39983;DHT22;25670;44.782;10.356;2022-10-31T18:47:56;15.80;99.90
39983;DHT22;25670;44.782;10.356;2022-10-31T18:50:22;15.80;99.90
39983;DHT22;25670;44.782;10.356;2022-10-31T18:52:48;15.80;99.90
39983;DHT22;25670;44.782;10.356;2022-10-31T18:55:15;15.90;99.90
39983;DHT22;25670;44.782;10.356;2022-10-31T18:57:41;16.00;99.90
39983;DHT22;25670;44.782;10.356;2022-10-31T19:00:08;16.00;99.90
39983;DHT22;25670;44.782;10.356;2022-10-31T19:02:34;16.00;99.90
39983;DHT22;25670;44.782;10.356;2022-10-31T19:05:00;15.90;99.90
39983;DHT22;25670;44.782;10.356;2022-10-31T19:07:26;15.90;99.90
39983;DHT22;25670;44.782;10.356;2022-10-31T19:09:53;15.90;99.90
39983;DHT22;25670;44.782;10.356;2022-10-31T19:14:45;15.80;99.90
39983;DHT22;25670;44.782;10.356;2022-10-31T19:17:14;15.80;99.90
39983;DHT22;25670;44.782;10.356;2022-10-31T19:19:40;15.80;99.90
39983;DHT22;25670;44.782;10.356;2022-10-31T19:22:06;15.70;99.90
39983;DHT22;25670;44.782;10.356;2022-10-31T19:24:32;15.60;99.90
39983;DHT22;25670;44.782;10.356;2022-10-31T19:26:59;15.50;99.90
39983;DHT22;25670;44.782;10.356;2022-10-31T19:29:25;15.50;99.90
39983;DHT22;25670;44.782;10.356;2022-10-31T19:34:19;15.40;99.90
39983;DHT22;25670;44.782;10.356;2022-10-31T19:36:45;15.20;99.90
39983;DHT22;25670;44.782;10.356;2022-10-31T19:39:11;15.10;99.90
39983;DHT22;25670;44.782;10.356;2022-10-31T19:41:37;15.00;99.90
39983;DHT22;25670;44.782;10.356;2022-10-31T19:44:04;14.90;99.90
39983;DHT22;25670;44.782;10.356;2022-10-31T19:46:30;14.90;99.90
39983;DHT22;25670;44.782;10.356;2022-10-31T19:48:56;14.80;99.90
39983;DHT22;25670;44.782;10.356;2022-10-31T19:53:50;14.60;99.90
39983;DHT22;25670;44.782;10.356;2022-10-31T19:56:22;14.40;99.90
39983;DHT22;25670;44.782;10.356;2022-10-31T20:01:35;14.30;99.90
39983;DHT22;25670;44.782;10.356;2022-10-31T20:04:02;14.00;99.90
39983;DHT22;25670;44.782;10.356;2022-10-31T20:06:35;14.10;99.90
39983;DHT22;25670;44.782;10.356;2022-10-31T20:09:04;14.10;99.90
39983;DHT22;25670;44.782;10.356;2022-10-31T20:11:37;14.00;99.90
39983;DHT22;25670;44.782;10.356;2022-10-31T20:14:04;13.90;99.90
39983;DHT22;25670;44.782;10.356;2022-10-31T20:16:31;13.90;99.90
39983;DHT22;25670;44.782;10.356;2022-10-31T20:18:57;13.80;99.90
39983;DHT22;25670;44.782;10.356;2022-10-31T20:21:27;13.80;99.90
39983;DHT22;25670;44.782;10.356;2022-10-31T20:23:58;14.50;99.90
39983;DHT22;25670;44.782;10.356;2022-10-31T20:26:24;13.80;99.90
39983;DHT22;25670;44.782;10.356;2022-10-31T20:28:51;13.70;99.90
39983;DHT22;25670;44.782;10.356;2022-10-31T20:31:20;13.80;99.90
39983;DHT22;25670;44.782;10.356;2022-10-31T20:33:47;13.70;99.90
39983;DHT22;25670;44.782;10.356;2022-10-31T20:36:14;13.40;99.90